sensor_id;sensor_type;location;lat;lon;timestamp;P1;durP1;ratioP1;P2;durP2;ratioP2
69937;SDS011;57248;47.320;15.998;2023-09-07T00:00:42;5.10;;;1.23;;
69937;SDS011;57248;47.320;15.998;2023-09-07T00:03:15;5.20;;;1.60;;
69937;SDS011;57248;47.320;15.998;2023-09-07T00:05:46;4.47;;;1.15;;
69937;SDS011;57248;47.320;15.998;2023-09-07T00:08:18;4.45;;;1.58;;
69937;SDS011;57248;47.320;15.998;2023-09-07T00:10:51;4.68;;;1.42;;
69937;SDS011;57248;47.320;15.998;2023-09-07T00:13:22;5.15;;;1.60;;
69937;SDS011;57248;47.320;15.998;2023-09-07T00:15:58;4.47;;;1.30;;
69937;SDS011;57248;47.320;15.998;2023-09-07T00:18:31;5.03;;;1.40;;
69937;SDS011;57248;47.320;15.998;2023-09-07T00:21:03;5.43;;;1.42;;
69937;SDS011;57248;47.320;15.998;2023-09-07T00:23:36;4.95;;;1.40;;
69937;SDS011;57248;47.320;15.998;2023-09-07T00:26:08;4.28;;;1.20;;
69937;SDS011;57248;47.320;15.998;2023-09-07T00:28:40;5.10;;;1.47;;
69937;SDS011;57248;47.320;15.998;2023-09-07T00:31:12;5.20;;;1.38;;
69937;SDS011;57248;47.320;15.998;2023-09-07T00:33:44;5.40;;;1.35;;
69937;SDS011;57248;47.320;15.998;2023-09-07T00:36:16;4.53;;;1.38;;
69937;SDS011;57248;47.320;15.998;2023-09-07T00:38:49;3.67;;;1.15;;
69937;SDS011;57248;47.320;15.998;2023-09-07T00:41:28;4.00;;;1.10;;
69937;SDS011;57248;47.320;15.998;2023-09-07T00:44:01;5.93;;;1.30;;
69937;SDS011;57248;47.320;15.998;2023-09-07T00:46:33;4.80;;;1.40;;
69937;SDS011;57248;47.320;15.998;2023-09-07T00:49:05;4.82;;;1.50;;
69937;SDS011;57248;47.320;15.998;2023-09-07T00:51:37;4.43;;;1.13;;
69937;SDS011;57248;47.320;15.998;2023-09-07T00:54:09;5.17;;;1.33;;
69937;SDS011;57248;47.320;15.998;2023-09-07T00:56:34;4.38;;;1.20;;
69937;SDS011;57248;47.320;15.998;2023-09-07T00:59:07;4.47;;;1.33;;
69937;SDS011;57248;47.320;15.998;2023-09-07T01:01:39;4.97;;;1.30;;
69937;SDS011;57248;47.320;15.998;2023-09-07T01:04:14;4.20;;;1.20;;
69937;SDS011;57248;47.320;15.998;2023-09-07T01:06:52;5.38;;;1.02;;
69937;SDS011;57248;47.320;15.998;2023-09-07T01:09:33;3.80;;;1.15;;
69937;SDS011;57248;47.320;15.998;2023-09-07T01:12:13;4.07;;;1.15;;
69937;SDS011;57248;47.320;15.998;2023-09-07T01:14:46;4.32;;;1.38;;
69937;SDS011;57248;47.320;15.998;2023-09-07T01:17:19;4.70;;;1.03;;
69937;SDS011;57248;47.320;15.998;2023-09-07T01:19:53;4.57;;;1.15;;
69937;SDS011;57248;47.320;15.998;2023-09-07T01:22:26;5.45;;;1.52;;
69937;SDS011;57248;47.320;15.998;2023-09-07T01:24:59;3.92;;;1.10;;
69937;SDS011;57248;47.320;15.998;2023-09-07T01:27:32;4.47;;;1.35;;
69937;SDS011;57248;47.320;15.998;2023-09-07T01:30:05;4.37;;;1.00;;
69937;SDS011;57248;47.320;15.998;2023-09-07T01:32:38;4.15;;;1.15;;
69937;SDS011;57248;47.320;15.998;2023-09-07T01:35:10;3.50;;;0.90;;
69937;SDS011;57248;47.320;15.998;2023-09-07T01:37:49;4.00;;;1.15;;
69937;SDS011;57248;47.320;15.998;2023-09-07T01:40:28;5.45;;;1.08;;
69937;SDS011;57248;47.320;15.998;2023-09-07T01:43:01;3.90;;;1.03;;
69937;SDS011;57248;47.320;15.998;2023-09-07T01:45:33;5.20;;;1.25;;
69937;SDS011;57248;47.320;15.998;2023-09-07T01:48:07;4.47;;;1.27;;
69937;SDS011;57248;47.320;15.998;2023-09-07T01:50:42;4.70;;;1.05;;
69937;SDS011;57248;47.320;15.998;2023-09-07T01:53:13;4.50;;;1.10;;
69937;SDS011;57248;47.320;15.998;2023-09-07T01:55:46;4.03;;;1.23;;
69937;SDS011;57248;47.320;15.998;2023-09-07T01:58:19;3.83;;;1.08;;
69937;SDS011;57248;47.320;15.998;2023-09-07T02:00:52;6.05;;;1.00;;
69937;SDS011;57248;47.320;15.998;2023-09-07T02:03:27;3.97;;;1.10;;
69937;SDS011;57248;47.320;15.998;2023-09-07T02:06:00;4.18;;;1.30;;
69937;SDS011;57248;47.320;15.998;2023-09-07T02:08:32;4.17;;;1.00;;
69937;SDS011;57248;47.320;15.998;2023-09-07T02:11:05;4.55;;;1.20;;
69937;SDS011;57248;47.320;15.998;2023-09-07T02:13:38;4.50;;;0.90;;
69937;SDS011;57248;47.320;15.998;2023-09-07T02:16:13;6.18;;;1.20;;
69937;SDS011;57248;47.320;15.998;2023-09-07T02:18:49;4.07;;;1.20;;
69937;SDS011;57248;47.320;15.998;2023-09-07T02:21:22;5.80;;;1.17;;
69937;SDS011;57248;47.320;15.998;2023-09-07T02:23:47;4.28;;;1.20;;
69937;SDS011;57248;47.320;15.998;2023-09-07T02:26:19;3.47;;;0.90;;
69937;SDS011;57248;47.320;15.998;2023-09-07T02:28:52;4.80;;;1.38;;
69937;SDS011;57248;47.320;15.998;2023-09-07T02:31:24;4.30;;;1.10;;
69937;SDS011;57248;47.320;15.998;2023-09-07T02:33:56;3.15;;;0.88;;
69937;SDS011;57248;47.320;15.998;2023-09-07T02:36:28;3.50;;;0.80;;
69937;SDS011;57248;47.320;15.998;2023-09-07T02:39:07;3.70;;;0.80;;
69937;SDS011;57248;47.320;15.998;2023-09-07T02:41:40;4.05;;;1.00;;
69937;SDS011;57248;47.320;15.998;2023-09-07T02:44:12;5.45;;;1.00;;
69937;SDS011;57248;47.320;15.998;2023-09-07T02:46:44;3.88;;;0.85;;
69937;SDS011;57248;47.320;15.998;2023-09-07T02:49:17;3.30;;;0.90;;
69937;SDS011;57248;47.320;15.998;2023-09-07T02:51:49;3.60;;;0.83;;
69937;SDS011;57248;47.320;15.998;2023-09-07T02:54:22;3.60;;;0.90;;
69937;SDS011;57248;47.320;15.998;2023-09-07T02:56:55;3.00;;;0.80;;
69937;SDS011;57248;47.320;15.998;2023-09-07T02:59:27;3.13;;;0.70;;
69937;SDS011;57248;47.320;15.998;2023-09-07T03:01:54;3.80;;;0.95;;
69937;SDS011;57248;47.320;15.998;2023-09-07T03:04:27;3.47;;;0.80;;
69937;SDS011;57248;47.320;15.998;2023-09-07T03:07:00;4.22;;;1.23;;
69937;SDS011;57248;47.320;15.998;2023-09-07T03:09:33;3.97;;;0.90;;
69937;SDS011;57248;47.320;15.998;2023-09-07T03:12:05;4.00;;;1.00;;
69937;SDS011;57248;47.320;15.998;2023-09-07T03:14:37;2.65;;;0.70;;
69937;SDS011;57248;47.320;15.998;2023-09-07T03:17:10;5.30;;;0.97;;
69937;SDS011;57248;47.320;15.998;2023-09-07T03:19:43;4.95;;;0.77;;
69937;SDS011;57248;47.320;15.998;2023-09-07T03:22:15;3.75;;;0.80;;
69937;SDS011;57248;47.320;15.998;2023-09-07T03:24:47;4.32;;;0.88;;
69937;SDS011;57248;47.320;15.998;2023-09-07T03:27:22;4.07;;;1.27;;
69937;SDS011;57248;47.320;15.998;2023-09-07T03:29:54;4.17;;;1.07;;
69937;SDS011;57248;47.320;15.998;2023-09-07T03:32:26;4.38;;;1.02;;
69937;SDS011;57248;47.320;15.998;2023-09-07T03:35:03;3.88;;;1.10;;
69937;SDS011;57248;47.320;15.998;2023-09-07T03:37:42;4.00;;;0.82;;
69937;SDS011;57248;47.320;15.998;2023-09-07T03:40:15;4.00;;;1.27;;
69937;SDS011;57248;47.320;15.998;2023-09-07T03:42:54;4.57;;;0.70;;
69937;SDS011;57248;47.320;15.998;2023-09-07T03:45:26;3.95;;;1.17;;
69937;SDS011;57248;47.320;15.998;2023-09-07T03:47:59;5.93;;;1.00;;
69937;SDS011;57248;47.320;15.998;2023-09-07T03:50:31;4.05;;;1.00;;
69937;SDS011;57248;47.320;15.998;2023-09-07T03:53:03;5.00;;;0.90;;
69937;SDS011;57248;47.320;15.998;2023-09-07T03:55:41;3.47;;;0.87;;
69937;SDS011;57248;47.320;15.998;2023-09-07T03:58:16;4.32;;;0.80;;
69937;SDS011;57248;47.320;15.998;2023-09-07T04:00:48;3.65;;;0.70;;
69937;SDS011;57248;47.320;15.998;2023-09-07T04:03:20;6.68;;;1.10;;
69937;SDS011;57248;47.320;15.998;2023-09-07T04:05:59;4.20;;;1.30;;
69937;SDS011;57248;47.320;15.998;2023-09-07T04:08:31;5.03;;;1.10;;
69937;SDS011;57248;47.320;15.998;2023-09-07T04:11:03;4.28;;;1.15;;
69937;SDS011;57248;47.320;15.998;2023-09-07T04:13:37;3.85;;;0.95;;
69937;SDS011;57248;47.320;15.998;2023-09-07T04:16:09;4.60;;;1.25;;
69937;SDS011;57248;47.320;15.998;2023-09-07T04:18:42;3.90;;;1.00;;
69937;SDS011;57248;47.320;15.998;2023-09-07T04:21:17;6.17;;;1.10;;
69937;SDS011;57248;47.320;15.998;2023-09-07T04:23:49;4.15;;;1.20;;
69937;SDS011;57248;47.320;15.998;2023-09-07T04:26:21;3.60;;;1.02;;
69937;SDS011;57248;47.320;15.998;2023-09-07T04:28:53;4.22;;;0.90;;
69937;SDS011;57248;47.320;15.998;2023-09-07T04:31:25;6.82;;;1.10;;
69937;SDS011;57248;47.320;15.998;2023-09-07T04:33:59;4.37;;;1.47;;
69937;SDS011;57248;47.320;15.998;2023-09-07T04:36:32;3.97;;;1.15;;
69937;SDS011;57248;47.320;15.998;2023-09-07T04:39:11;2.90;;;0.90;;
69937;SDS011;57248;47.320;15.998;2023-09-07T04:41:47;3.65;;;1.20;;
69937;SDS011;57248;47.320;15.998;2023-09-07T04:44:19;6.05;;;1.05;;
69937;SDS011;57248;47.320;15.998;2023-09-07T04:46:54;3.80;;;1.00;;
69937;SDS011;57248;47.320;15.998;2023-09-07T04:49:27;7.93;;;0.93;;
69937;SDS011;57248;47.320;15.998;2023-09-07T04:51:59;3.70;;;1.00;;
69937;SDS011;57248;47.320;15.998;2023-09-07T04:54:24;4.73;;;1.23;;
69937;SDS011;57248;47.320;15.998;2023-09-07T04:56:57;3.20;;;0.85;;
69937;SDS011;57248;47.320;15.998;2023-09-07T04:59:29;5.97;;;1.05;;
69937;SDS011;57248;47.320;15.998;2023-09-07T05:02:01;4.05;;;0.98;;
69937;SDS011;57248;47.320;15.998;2023-09-07T05:04:36;3.50;;;0.88;;
69937;SDS011;57248;47.320;15.998;2023-09-07T05:07:09;3.67;;;0.90;;
69937;SDS011;57248;47.320;15.998;2023-09-07T05:09:41;4.00;;;1.10;;
69937;SDS011;57248;47.320;15.998;2023-09-07T05:12:14;4.85;;;1.45;;
69937;SDS011;57248;47.320;15.998;2023-09-07T05:14:51;3.83;;;1.25;;
69937;SDS011;57248;47.320;15.998;2023-09-07T05:17:24;4.93;;;1.20;;
69937;SDS011;57248;47.320;15.998;2023-09-07T05:19:56;4.30;;;1.20;;
69937;SDS011;57248;47.320;15.998;2023-09-07T05:22:28;4.80;;;1.75;;
69937;SDS011;57248;47.320;15.998;2023-09-07T05:24:53;4.60;;;1.20;;
69937;SDS011;57248;47.320;15.998;2023-09-07T05:27:26;4.65;;;1.70;;
69937;SDS011;57248;47.320;15.998;2023-09-07T05:29:58;4.20;;;1.50;;
69937;SDS011;57248;47.320;15.998;2023-09-07T05:32:30;4.82;;;1.17;;
69937;SDS011;57248;47.320;15.998;2023-09-07T05:35:02;4.78;;;1.52;;
69937;SDS011;57248;47.320;15.998;2023-09-07T05:37:35;5.70;;;1.63;;
69937;SDS011;57248;47.320;15.998;2023-09-07T05:40:08;4.55;;;1.67;;
69937;SDS011;57248;47.320;15.998;2023-09-07T05:42:48;4.30;;;1.27;;
69937;SDS011;57248;47.320;15.998;2023-09-07T05:45:21;4.35;;;1.20;;
69937;SDS011;57248;47.320;15.998;2023-09-07T05:47:53;6.95;;;1.50;;
69937;SDS011;57248;47.320;15.998;2023-09-07T05:50:34;4.70;;;1.35;;
69937;SDS011;57248;47.320;15.998;2023-09-07T05:53:08;3.92;;;1.23;;
69937;SDS011;57248;47.320;15.998;2023-09-07T05:55:41;4.70;;;1.47;;
69937;SDS011;57248;47.320;15.998;2023-09-07T05:58:13;4.70;;;1.52;;
69937;SDS011;57248;47.320;15.998;2023-09-07T06:00:46;4.43;;;1.30;;
69937;SDS011;57248;47.320;15.998;2023-09-07T06:03:18;3.85;;;1.48;;
69937;SDS011;57248;47.320;15.998;2023-09-07T06:05:51;5.57;;;2.00;;
69937;SDS011;57248;47.320;15.998;2023-09-07T06:08:23;6.03;;;2.20;;
69937;SDS011;57248;47.320;15.998;2023-09-07T06:10:55;6.60;;;2.70;;
69937;SDS011;57248;47.320;15.998;2023-09-07T06:13:27;6.47;;;2.17;;
69937;SDS011;57248;47.320;15.998;2023-09-07T06:16:00;5.72;;;2.05;;
69937;SDS011;57248;47.320;15.998;2023-09-07T06:18:32;6.82;;;2.35;;
69937;SDS011;57248;47.320;15.998;2023-09-07T06:20:59;6.17;;;2.23;;
69937;SDS011;57248;47.320;15.998;2023-09-07T06:23:31;6.38;;;2.53;;
69937;SDS011;57248;47.320;15.998;2023-09-07T06:26:04;5.50;;;2.78;;
69937;SDS011;57248;47.320;15.998;2023-09-07T06:28:36;4.95;;;2.22;;
69937;SDS011;57248;47.320;15.998;2023-09-07T06:31:09;5.32;;;2.30;;
69937;SDS011;57248;47.320;15.998;2023-09-07T06:33:41;5.53;;;2.53;;
69937;SDS011;57248;47.320;15.998;2023-09-07T06:36:14;6.57;;;2.60;;
69937;SDS011;57248;47.320;15.998;2023-09-07T06:38:46;5.50;;;2.72;;
69937;SDS011;57248;47.320;15.998;2023-09-07T06:41:18;10.52;;;3.00;;
69937;SDS011;57248;47.320;15.998;2023-09-07T06:43:57;6.53;;;2.85;;
69937;SDS011;57248;47.320;15.998;2023-09-07T06:46:29;6.00;;;3.10;;
69937;SDS011;57248;47.320;15.998;2023-09-07T06:49:01;5.82;;;2.95;;
69937;SDS011;57248;47.320;15.998;2023-09-07T06:51:34;5.78;;;3.08;;
69937;SDS011;57248;47.320;15.998;2023-09-07T06:54:06;6.95;;;3.28;;
69937;SDS011;57248;47.320;15.998;2023-09-07T06:56:38;6.18;;;3.58;;
69937;SDS011;57248;47.320;15.998;2023-09-07T06:59:10;7.93;;;3.67;;
69937;SDS011;57248;47.320;15.998;2023-09-07T07:01:42;6.35;;;3.35;;
69937;SDS011;57248;47.320;15.998;2023-09-07T07:04:07;5.77;;;3.47;;
69937;SDS011;57248;47.320;15.998;2023-09-07T07:06:40;5.72;;;3.35;;
69937;SDS011;57248;47.320;15.998;2023-09-07T07:09:05;6.70;;;3.70;;
69937;SDS011;57248;47.320;15.998;2023-09-07T07:11:39;6.10;;;3.35;;
69937;SDS011;57248;47.320;15.998;2023-09-07T07:14:12;6.82;;;3.70;;
69937;SDS011;57248;47.320;15.998;2023-09-07T07:16:44;6.47;;;3.78;;
69937;SDS011;57248;47.320;15.998;2023-09-07T07:19:16;5.90;;;3.80;;
69937;SDS011;57248;47.320;15.998;2023-09-07T07:21:49;5.77;;;3.47;;
69937;SDS011;57248;47.320;15.998;2023-09-07T07:24:21;4.70;;;3.30;;
69937;SDS011;57248;47.320;15.998;2023-09-07T07:26:53;5.50;;;3.65;;
69937;SDS011;57248;47.320;15.998;2023-09-07T07:29:30;5.95;;;4.00;;
69937;SDS011;57248;47.320;15.998;2023-09-07T07:32:02;5.40;;;4.15;;
69937;SDS011;57248;47.320;15.998;2023-09-07T07:34:36;5.17;;;4.07;;
69937;SDS011;57248;47.320;15.998;2023-09-07T07:37:08;5.43;;;4.40;;
69937;SDS011;57248;47.320;15.998;2023-09-07T07:39:47;5.70;;;4.53;;
69937;SDS011;57248;47.320;15.998;2023-09-07T07:42:19;5.28;;;4.78;;
69937;SDS011;57248;47.320;15.998;2023-09-07T07:44:52;6.22;;;5.63;;
69937;SDS011;57248;47.320;15.998;2023-09-07T07:47:24;6.33;;;5.63;;
69937;SDS011;57248;47.320;15.998;2023-09-07T07:49:58;7.00;;;6.40;;
69937;SDS011;57248;47.320;15.998;2023-09-07T07:52:30;7.90;;;7.03;;
69937;SDS011;57248;47.320;15.998;2023-09-07T07:55:02;8.02;;;7.32;;
69937;SDS011;57248;47.320;15.998;2023-09-07T07:57:34;7.25;;;6.65;;
69937;SDS011;57248;47.320;15.998;2023-09-07T08:00:09;7.43;;;6.83;;
69937;SDS011;57248;47.320;15.998;2023-09-07T08:03:01;7.63;;;7.03;;
69937;SDS011;57248;47.320;15.998;2023-09-07T08:05:37;7.95;;;7.32;;
69937;SDS011;57248;47.320;15.998;2023-09-07T08:08:11;8.50;;;7.80;;
69937;SDS011;57248;47.320;15.998;2023-09-07T08:10:44;7.25;;;6.65;;
69937;SDS011;57248;47.320;15.998;2023-09-07T08:13:17;7.70;;;7.10;;
69937;SDS011;57248;47.320;15.998;2023-09-07T08:15:51;8.40;;;7.70;;
69937;SDS011;57248;47.320;15.998;2023-09-07T08:18:23;8.55;;;7.85;;
69937;SDS011;57248;47.320;15.998;2023-09-07T08:20:49;8.98;;;8.23;;
69937;SDS011;57248;47.320;15.998;2023-09-07T08:23:21;8.98;;;8.20;;
69937;SDS011;57248;47.320;15.998;2023-09-07T08:26:15;7.63;;;7.03;;
69937;SDS011;57248;47.320;15.998;2023-09-07T08:28:47;7.05;;;6.45;;
69937;SDS011;57248;47.320;15.998;2023-09-07T08:31:20;7.55;;;6.78;;
69937;SDS011;57248;47.320;15.998;2023-09-07T08:33:54;6.68;;;5.82;;
69937;SDS011;57248;47.320;15.998;2023-09-07T08:36:27;7.85;;;7.25;;
69937;SDS011;57248;47.320;15.998;2023-09-07T08:39:01;7.17;;;6.57;;
69937;SDS011;57248;47.320;15.998;2023-09-07T08:41:51;9.73;;;8.13;;
69937;SDS011;57248;47.320;15.998;2023-09-07T08:44:23;7.25;;;6.53;;
69937;SDS011;57248;47.320;15.998;2023-09-07T08:46:56;10.38;;;8.60;;
69937;SDS011;57248;47.320;15.998;2023-09-07T08:49:31;58.17;;;42.42;;
69937;SDS011;57248;47.320;15.998;2023-09-07T08:52:04;29.47;;;23.83;;
69937;SDS011;57248;47.320;15.998;2023-09-07T08:54:37;6.15;;;5.63;;
69937;SDS011;57248;47.320;15.998;2023-09-07T08:57:10;7.10;;;6.47;;
69937;SDS011;57248;47.320;15.998;2023-09-07T08:59:43;7.18;;;6.38;;
69937;SDS011;57248;47.320;15.998;2023-09-07T09:02:15;8.60;;;7.80;;
69937;SDS011;57248;47.320;15.998;2023-09-07T09:04:48;7.77;;;7.17;;
69937;SDS011;57248;47.320;15.998;2023-09-07T09:07:20;7.53;;;6.85;;
69937;SDS011;57248;47.320;15.998;2023-09-07T09:10:01;8.30;;;7.60;;
69937;SDS011;57248;47.320;15.998;2023-09-07T09:12:44;8.50;;;7.80;;
69937;SDS011;57248;47.320;15.998;2023-09-07T09:15:17;8.60;;;7.90;;
69937;SDS011;57248;47.320;15.998;2023-09-07T09:17:50;6.87;;;6.13;;
69937;SDS011;57248;47.320;15.998;2023-09-07T09:20:22;7.90;;;7.20;;
69937;SDS011;57248;47.320;15.998;2023-09-07T09:22:55;11.63;;;10.43;;
69937;SDS011;57248;47.320;15.998;2023-09-07T09:25:28;9.50;;;8.68;;
69937;SDS011;57248;47.320;15.998;2023-09-07T09:28:01;10.05;;;9.25;;
69937;SDS011;57248;47.320;15.998;2023-09-07T09:30:34;10.70;;;9.88;;
69937;SDS011;57248;47.320;15.998;2023-09-07T09:33:07;10.88;;;10.07;;
69937;SDS011;57248;47.320;15.998;2023-09-07T09:35:39;9.83;;;9.13;;
69937;SDS011;57248;47.320;15.998;2023-09-07T09:38:12;10.75;;;9.70;;
69937;SDS011;57248;47.320;15.998;2023-09-07T09:40:45;19.83;;;17.92;;
69937;SDS011;57248;47.320;15.998;2023-09-07T09:43:19;9.40;;;8.70;;
69937;SDS011;57248;47.320;15.998;2023-09-07T09:45:52;10.10;;;9.30;;
69937;SDS011;57248;47.320;15.998;2023-09-07T09:48:24;10.83;;;9.97;;
69937;SDS011;57248;47.320;15.998;2023-09-07T09:50:57;11.57;;;10.73;;
69937;SDS011;57248;47.320;15.998;2023-09-07T09:53:31;10.35;;;9.60;;
69937;SDS011;57248;47.320;15.998;2023-09-07T09:56:03;10.73;;;9.82;;
69937;SDS011;57248;47.320;15.998;2023-09-07T09:58:35;10.90;;;10.10;;
69937;SDS011;57248;47.320;15.998;2023-09-07T10:01:07;9.87;;;9.07;;
69937;SDS011;57248;47.320;15.998;2023-09-07T10:03:42;9.75;;;9.05;;
69937;SDS011;57248;47.320;15.998;2023-09-07T10:06:25;10.15;;;9.25;;
69937;SDS011;57248;47.320;15.998;2023-09-07T10:11:42;10.02;;;9.15;;
69937;SDS011;57248;47.320;15.998;2023-09-07T10:14:14;11.77;;;10.77;;
69937;SDS011;57248;47.320;15.998;2023-09-07T10:16:50;12.00;;;11.20;;
69937;SDS011;57248;47.320;15.998;2023-09-07T10:19:24;11.98;;;11.07;;
69937;SDS011;57248;47.320;15.998;2023-09-07T10:21:58;12.60;;;11.70;;
69937;SDS011;57248;47.320;15.998;2023-09-07T10:24:32;13.40;;;12.48;;
69937;SDS011;57248;47.320;15.998;2023-09-07T10:27:07;12.80;;;12.00;;
69937;SDS011;57248;47.320;15.998;2023-09-07T10:29:41;13.20;;;12.30;;
69937;SDS011;57248;47.320;15.998;2023-09-07T10:32:14;12.13;;;11.23;;
69937;SDS011;57248;47.320;15.998;2023-09-07T10:34:48;11.85;;;11.05;;
69937;SDS011;57248;47.320;15.998;2023-09-07T10:37:27;11.77;;;10.98;;
69937;SDS011;57248;47.320;15.998;2023-09-07T10:40:08;12.10;;;11.10;;
69937;SDS011;57248;47.320;15.998;2023-09-07T10:42:43;10.43;;;9.63;;
69937;SDS011;57248;47.320;15.998;2023-09-07T10:45:15;12.75;;;11.75;;
69937;SDS011;57248;47.320;15.998;2023-09-07T10:47:43;12.45;;;11.57;;
69937;SDS011;57248;47.320;15.998;2023-09-07T10:50:15;12.25;;;11.45;;
69937;SDS011;57248;47.320;15.998;2023-09-07T10:52:42;12.70;;;11.80;;
69937;SDS011;57248;47.320;15.998;2023-09-07T10:55:14;14.10;;;13.20;;
69937;SDS011;57248;47.320;15.998;2023-09-07T10:57:47;12.02;;;11.23;;
69937;SDS011;57248;47.320;15.998;2023-09-07T11:00:19;12.82;;;11.80;;
69937;SDS011;57248;47.320;15.998;2023-09-07T11:02:51;12.48;;;11.68;;
69937;SDS011;57248;47.320;15.998;2023-09-07T11:05:23;14.17;;;13.27;;
69937;SDS011;57248;47.320;15.998;2023-09-07T11:07:56;14.35;;;13.45;;
69937;SDS011;57248;47.320;15.998;2023-09-07T11:10:33;13.45;;;12.45;;
69937;SDS011;57248;47.320;15.998;2023-09-07T11:13:05;15.70;;;14.63;;
69937;SDS011;57248;47.320;15.998;2023-09-07T11:15:38;15.18;;;14.23;;
69937;SDS011;57248;47.320;15.998;2023-09-07T11:18:11;14.97;;;14.03;;
69937;SDS011;57248;47.320;15.998;2023-09-07T11:20:43;15.32;;;14.27;;
69937;SDS011;57248;47.320;15.998;2023-09-07T11:23:16;12.10;;;11.20;;
69937;SDS011;57248;47.320;15.998;2023-09-07T11:25:49;11.35;;;10.52;;
69937;SDS011;57248;47.320;15.998;2023-09-07T11:28:22;11.20;;;10.40;;
69937;SDS011;57248;47.320;15.998;2023-09-07T11:30:56;11.60;;;10.80;;
69937;SDS011;57248;47.320;15.998;2023-09-07T11:33:22;9.95;;;9.25;;
69937;SDS011;57248;47.320;15.998;2023-09-07T11:35:54;10.95;;;10.15;;
69937;SDS011;57248;47.320;15.998;2023-09-07T11:38:28;11.90;;;11.10;;
69937;SDS011;57248;47.320;15.998;2023-09-07T11:41:07;12.38;;;11.48;;
69937;SDS011;57248;47.320;15.998;2023-09-07T11:43:47;11.90;;;11.10;;
69937;SDS011;57248;47.320;15.998;2023-09-07T11:46:19;12.00;;;11.10;;
69937;SDS011;57248;47.320;15.998;2023-09-07T11:48:52;12.32;;;11.50;;
69937;SDS011;57248;47.320;15.998;2023-09-07T11:51:31;13.80;;;12.80;;
69937;SDS011;57248;47.320;15.998;2023-09-07T11:54:03;13.10;;;12.20;;
69937;SDS011;57248;47.320;15.998;2023-09-07T11:56:37;13.93;;;13.02;;
69937;SDS011;57248;47.320;15.998;2023-09-07T11:59:14;13.40;;;12.45;;
69937;SDS011;57248;47.320;15.998;2023-09-07T12:01:48;14.80;;;13.82;;
69937;SDS011;57248;47.320;15.998;2023-09-07T12:04:20;11.53;;;10.63;;
69937;SDS011;57248;47.320;15.998;2023-09-07T12:06:52;12.07;;;11.27;;
69937;SDS011;57248;47.320;15.998;2023-09-07T12:09:24;12.07;;;11.18;;
69937;SDS011;57248;47.320;15.998;2023-09-07T12:11:56;14.05;;;13.15;;
69937;SDS011;57248;47.320;15.998;2023-09-07T12:14:28;14.13;;;13.13;;
69937;SDS011;57248;47.320;15.998;2023-09-07T12:17:00;11.27;;;10.47;;
69937;SDS011;57248;47.320;15.998;2023-09-07T12:19:33;8.82;;;8.20;;
69937;SDS011;57248;47.320;15.998;2023-09-07T12:22:05;10.70;;;9.85;;
69937;SDS011;57248;47.320;15.998;2023-09-07T12:24:37;10.25;;;9.43;;
69937;SDS011;57248;47.320;15.998;2023-09-07T12:27:09;11.65;;;10.85;;
69937;SDS011;57248;47.320;15.998;2023-09-07T12:29:41;12.87;;;11.97;;
69937;SDS011;57248;47.320;15.998;2023-09-07T12:32:08;12.90;;;12.00;;
69937;SDS011;57248;47.320;15.998;2023-09-07T12:34:40;12.38;;;11.50;;
69937;SDS011;57248;47.320;15.998;2023-09-07T12:37:14;12.45;;;11.65;;
69937;SDS011;57248;47.320;15.998;2023-09-07T12:39:46;9.77;;;9.07;;
69937;SDS011;57248;47.320;15.998;2023-09-07T12:42:25;10.20;;;9.40;;
69937;SDS011;57248;47.320;15.998;2023-09-07T12:44:57;10.95;;;10.05;;
69937;SDS011;57248;47.320;15.998;2023-09-07T12:47:30;8.90;;;8.20;;
69937;SDS011;57248;47.320;15.998;2023-09-07T12:50:02;9.48;;;8.70;;
69937;SDS011;57248;47.320;15.998;2023-09-07T12:52:36;7.83;;;7.23;;
69937;SDS011;57248;47.320;15.998;2023-09-07T12:55:10;7.78;;;7.18;;
69937;SDS011;57248;47.320;15.998;2023-09-07T12:57:44;8.25;;;7.60;;
69937;SDS011;57248;47.320;15.998;2023-09-07T13:00:09;8.13;;;7.53;;
69937;SDS011;57248;47.320;15.998;2023-09-07T13:02:43;7.53;;;6.93;;
69937;SDS011;57248;47.320;15.998;2023-09-07T13:05:15;8.45;;;7.82;;
69937;SDS011;57248;47.320;15.998;2023-09-07T13:07:48;8.07;;;7.47;;
69937;SDS011;57248;47.320;15.998;2023-09-07T13:10:20;9.13;;;8.43;;
69937;SDS011;57248;47.320;15.998;2023-09-07T13:12:53;8.93;;;8.33;;
69937;SDS011;57248;47.320;15.998;2023-09-07T13:15:25;9.82;;;9.13;;
69937;SDS011;57248;47.320;15.998;2023-09-07T13:17:58;9.75;;;9.05;;
69937;SDS011;57248;47.320;15.998;2023-09-07T13:20:30;9.75;;;8.95;;
69937;SDS011;57248;47.320;15.998;2023-09-07T13:22:56;9.80;;;9.03;;
69937;SDS011;57248;47.320;15.998;2023-09-07T13:25:29;10.00;;;9.20;;
69937;SDS011;57248;47.320;15.998;2023-09-07T13:28:01;9.52;;;8.82;;
69937;SDS011;57248;47.320;15.998;2023-09-07T13:30:27;8.70;;;8.10;;
69937;SDS011;57248;47.320;15.998;2023-09-07T13:32:59;10.18;;;9.48;;
69937;SDS011;57248;47.320;15.998;2023-09-07T13:35:25;10.20;;;9.50;;
69937;SDS011;57248;47.320;15.998;2023-09-07T13:37:57;9.63;;;8.93;;
69937;SDS011;57248;47.320;15.998;2023-09-07T13:40:38;9.68;;;8.98;;
69937;SDS011;57248;47.320;15.998;2023-09-07T13:43:11;9.23;;;8.52;;
69937;SDS011;57248;47.320;15.998;2023-09-07T13:45:44;9.80;;;9.00;;
69937;SDS011;57248;47.320;15.998;2023-09-07T13:48:16;10.13;;;9.43;;
69937;SDS011;57248;47.320;15.998;2023-09-07T13:50:48;9.20;;;8.40;;
69937;SDS011;57248;47.320;15.998;2023-09-07T13:53:20;10.82;;;10.02;;
69937;SDS011;57248;47.320;15.998;2023-09-07T13:55:52;9.38;;;8.68;;
69937;SDS011;57248;47.320;15.998;2023-09-07T13:58:24;9.32;;;8.63;;
69937;SDS011;57248;47.320;15.998;2023-09-07T14:00:56;8.43;;;7.72;;
69937;SDS011;57248;47.320;15.998;2023-09-07T14:03:28;9.23;;;8.53;;
69937;SDS011;57248;47.320;15.998;2023-09-07T14:06:01;7.72;;;7.13;;
69937;SDS011;57248;47.320;15.998;2023-09-07T14:08:33;8.10;;;7.40;;
69937;SDS011;57248;47.320;15.998;2023-09-07T14:11:06;8.25;;;7.55;;
69937;SDS011;57248;47.320;15.998;2023-09-07T14:13:38;8.43;;;7.63;;
69937;SDS011;57248;47.320;15.998;2023-09-07T14:16:03;7.30;;;6.70;;
69937;SDS011;57248;47.320;15.998;2023-09-07T14:18:36;10.50;;;6.50;;
69937;SDS011;57248;47.320;15.998;2023-09-07T14:21:08;6.80;;;6.20;;
69937;SDS011;57248;47.320;15.998;2023-09-07T14:23:40;5.90;;;5.38;;
69937;SDS011;57248;47.320;15.998;2023-09-07T14:26:12;6.53;;;5.93;;
69937;SDS011;57248;47.320;15.998;2023-09-07T14:28:44;6.78;;;6.18;;
69937;SDS011;57248;47.320;15.998;2023-09-07T14:31:17;6.85;;;6.00;;
69937;SDS011;57248;47.320;15.998;2023-09-07T14:33:42;6.17;;;5.57;;
69937;SDS011;57248;47.320;15.998;2023-09-07T14:36:14;5.97;;;5.38;;
69937;SDS011;57248;47.320;15.998;2023-09-07T14:38:47;6.00;;;5.40;;
69937;SDS011;57248;47.320;15.998;2023-09-07T14:41:19;5.47;;;4.97;;
69937;SDS011;57248;47.320;15.998;2023-09-07T14:43:59;5.18;;;4.68;;
69937;SDS011;57248;47.320;15.998;2023-09-07T14:46:31;5.43;;;4.63;;
69937;SDS011;57248;47.320;15.998;2023-09-07T14:49:04;7.95;;;4.43;;
69937;SDS011;57248;47.320;15.998;2023-09-07T14:51:36;4.73;;;3.80;;
69937;SDS011;57248;47.320;15.998;2023-09-07T14:54:09;4.57;;;3.63;;
69937;SDS011;57248;47.320;15.998;2023-09-07T14:56:41;4.53;;;3.38;;
69937;SDS011;57248;47.320;15.998;2023-09-07T14:59:14;5.15;;;4.18;;
69937;SDS011;57248;47.320;15.998;2023-09-07T15:01:46;4.32;;;3.92;;
69937;SDS011;57248;47.320;15.998;2023-09-07T15:04:19;4.70;;;3.73;;